sensor_id;sensor_type;location;lat;lon;timestamp;pressure;altitude;pressure_sealevel;temperature;humidity
59103;BME280;43999;51.660;5.616;2022-10-22T00:01:03;100725.94;;;13.04;100.00
59103;BME280;43999;51.660;5.616;2022-10-22T00:03:31;100727.72;;;13.03;100.00
59103;BME280;43999;51.660;5.616;2022-10-22T00:05:58;100723.31;;;13.04;100.00
59103;BME280;43999;51.660;5.616;2022-10-22T00:08:26;100726.91;;;13.03;100.00
59103;BME280;43999;51.660;5.616;2022-10-22T00:10:53;100721.75;;;13.01;100.00
59103;BME280;43999;51.660;5.616;2022-10-22T00:13:20;100721.84;;;13.00;100.00
59103;BME280;43999;51.660;5.616;2022-10-22T00:15:48;100725.50;;;12.97;100.00
59103;BME280;43999;51.660;5.616;2022-10-22T00:18:15;100723.06;;;12.94;100.00
59103;BME280;43999;51.660;5.616;2022-10-22T00:20:42;100724.97;;;12.92;100.00
59103;BME280;43999;51.660;5.616;2022-10-22T00:23:09;100721.47;;;12.91;100.00
59103;BME280;43999;51.660;5.616;2022-10-22T00:25:36;100724.31;;;12.88;100.00
59103;BME280;43999;51.660;5.616;2022-10-22T00:28:04;100729.78;;;12.85;100.00
59103;BME280;43999;51.660;5.616;2022-10-22T00:30:31;100724.59;;;12.84;100.00
59103;BME280;43999;51.660;5.616;2022-10-22T00:32:58;100725.56;;;12.83;100.00
59103;BME280;43999;51.660;5.616;2022-10-22T00:35:26;100716.09;;;12.80;100.00
59103;BME280;43999;51.660;5.616;2022-10-22T00:37:53;100716.19;;;12.79;100.00
59103;BME280;43999;51.660;5.616;2022-10-22T00:40:20;100714.50;;;12.78;100.00
59103;BME280;43999;51.660;5.616;2022-10-22T00:42:48;100714.59;;;12.76;100.00
59103;BME280;43999;51.660;5.616;2022-10-22T00:45:26;100720.91;;;12.73;100.00
59103;BME280;43999;51.660;5.616;2022-10-22T00:51:02;100728.22;;;12.68;100.00
59103;BME280;43999;51.660;5.616;2022-10-22T00:53:38;100733.41;;;12.70;100.00
59103;BME280;43999;51.660;5.616;2022-10-22T00:56:11;100729.09;;;12.69;100.00
59103;BME280;43999;51.660;5.616;2022-10-22T00:58:44;100728.34;;;12.67;100.00
59103;BME280;43999;51.660;5.616;2022-10-22T01:01:24;100724.22;;;12.63;100.00
59103;BME280;43999;51.660;5.616;2022-10-22T01:03:54;100724.22;;;12.63;100.00
59103;BME280;43999;51.660;5.616;2022-10-22T01:06:31;100716.53;;;12.60;100.00
59103;BME280;43999;51.660;5.616;2022-10-22T01:09:29;100736.81;;;12.58;100.00
59103;BME280;43999;51.660;5.616;2022-10-22T01:12:15;100726.59;;;12.53;100.00
59103;BME280;43999;51.660;5.616;2022-10-22T01:21:22;100722.78;;;12.44;100.00
59103;BME280;43999;51.660;5.616;2022-10-22T01:24:23;100727.38;;;12.41;100.00
59103;BME280;43999;51.660;5.616;2022-10-22T01:27:32;100716.13;;;12.38;100.00
59103;BME280;43999;51.660;5.616;2022-10-22T01:30:21;100718.75;;;12.38;100.00
59103;BME280;43999;51.660;5.616;2022-10-22T01:32:55;100712.84;;;12.35;100.00
59103;BME280;43999;51.660;5.616;2022-10-22T01:35:32;100719.88;;;12.34;100.00
59103;BME280;43999;51.660;5.616;2022-10-22T01:38:06;100714.72;;;12.33;100.00
59103;BME280;43999;51.660;5.616;2022-10-22T01:40:37;100728.81;;;12.32;100.00
59103;BME280;43999;51.660;5.616;2022-10-22T01:43:08;100722.78;;;12.30;100.00
59103;BME280;43999;51.660;5.616;2022-10-22T01:46:00;100715.88;;;12.29;100.00
59103;BME280;43999;51.660;5.616;2022-10-22T01:52:14;100715.88;;;12.29;100.00
59103;BME280;43999;51.660;5.616;2022-10-22T01:55:38;100711.53;;;12.28;100.00
59103;BME280;43999;51.660;5.616;2022-10-22T02:07:40;100710.03;;;12.24;100.00
59103;BME280;43999;51.660;5.616;2022-10-22T02:10:14;100712.75;;;12.22;100.00
59103;BME280;43999;51.660;5.616;2022-10-22T02:12:47;100717.91;;;12.24;100.00
59103;BME280;43999;51.660;5.616;2022-10-22T02:15:19;100723.16;;;12.24;100.00
59103;BME280;43999;51.660;5.616;2022-10-22T02:17:48;100713.53;;;12.24;100.00
59103;BME280;43999;51.660;5.616;2022-10-22T02:20:29;100713.63;;;12.23;100.00
59103;BME280;43999;51.660;5.616;2022-10-22T02:23:01;100711.84;;;12.23;100.00
59103;BME280;43999;51.660;5.616;2022-10-22T02:25:34;100717.00;;;12.25;100.00
59103;BME280;43999;51.660;5.616;2022-10-22T02:28:31;100713.44;;;12.26;100.00
59103;BME280;43999;51.660;5.616;2022-10-22T02:31:18;100709.13;;;12.25;100.00
59103;BME280;43999;51.660;5.616;2022-10-22T02:33:53;100711.94;;;12.22;100.00
59103;BME280;43999;51.660;5.616;2022-10-22T02:36:24;100711.72;;;12.25;100.00
59103;BME280;43999;51.660;5.616;2022-10-22T02:38:52;100707.41;;;12.24;100.00
59103;BME280;43999;51.660;5.616;2022-10-22T02:41:21;100704.88;;;12.22;100.00
59103;BME280;43999;51.660;5.616;2022-10-22T02:43:55;100711.19;;;12.19;100.00
59103;BME280;43999;51.660;5.616;2022-10-22T02:46:23;100717.28;;;12.20;100.00
59103;BME280;43999;51.660;5.616;2022-10-22T02:48:52;100713.91;;;12.18;100.00
59103;BME280;43999;51.660;5.616;2022-10-22T02:51:19;100710.63;;;12.14;100.00
59103;BME280;43999;51.660;5.616;2022-10-22T02:53:46;100711.56;;;12.13;100.00
59103;BME280;43999;51.660;5.616;2022-10-22T02:56:13;100709.78;;;12.14;100.00
59103;BME280;43999;51.660;5.616;2022-10-22T02:58:41;100715.88;;;12.14;100.00
59103;BME280;43999;51.660;5.616;2022-10-22T03:01:08;100708.94;;;12.13;100.00
59103;BME280;43999;51.660;5.616;2022-10-22T03:03:41;100721.31;;;12.11;100.00
59103;BME280;43999;51.660;5.616;2022-10-22T03:06:08;100717.03;;;12.10;100.00
59103;BME280;43999;51.660;5.616;2022-10-22T03:08:35;100713.44;;;12.11;100.00
59103;BME280;43999;51.660;5.616;2022-10-22T03:11:03;100722.19;;;12.12;100.00
59103;BME280;43999;51.660;5.616;2022-10-22T03:13:30;100722.28;;;12.10;100.00
59103;BME280;43999;51.660;5.616;2022-10-22T03:15:59;100722.38;;;12.09;100.00
59103;BME280;43999;51.660;5.616;2022-10-22T03:18:26;100720.47;;;12.11;100.00
59103;BME280;43999;51.660;5.616;2022-10-22T03:21:23;100720.56;;;12.09;100.00
59103;BME280;43999;51.660;5.616;2022-10-22T03:23:57;100731.81;;;12.11;100.00
59103;BME280;43999;51.660;5.616;2022-10-22T03:26:27;100727.44;;;12.12;100.00
59103;BME280;43999;51.660;5.616;2022-10-22T03:28:55;100730.06;;;12.12;100.00
59103;BME280;43999;51.660;5.616;2022-10-22T03:31:22;100737.06;;;12.11;100.00
59103;BME280;43999;51.660;5.616;2022-10-22T03:33:49;100727.63;;;12.09;100.00
59103;BME280;43999;51.660;5.616;2022-10-22T03:36:16;100735.50;;;12.09;100.00
59103;BME280;43999;51.660;5.616;2022-10-22T03:38:44;100735.50;;;12.09;100.00
59103;BME280;43999;51.660;5.616;2022-10-22T03:41:11;100742.22;;;12.13;100.00
59103;BME280;43999;51.660;5.616;2022-10-22T03:43:38;100745.72;;;12.13;100.00
59103;BME280;43999;51.660;5.616;2022-10-22T03:46:06;100743.19;;;12.12;100.00
59103;BME280;43999;51.660;5.616;2022-10-22T03:48:37;100744.13;;;12.11;100.00
59103;BME280;43999;51.660;5.616;2022-10-22T03:51:04;100748.53;;;12.10;100.00
59103;BME280;43999;51.660;5.616;2022-10-22T03:53:31;100754.44;;;12.14;100.00
59103;BME280;43999;51.660;5.616;2022-10-22T03:55:59;100751.81;;;12.14;100.00
59103;BME280;43999;51.660;5.616;2022-10-22T03:58:26;100752.53;;;12.16;100.00
59103;BME280;43999;51.660;5.616;2022-10-22T04:00:53;100762.22;;;12.15;100.00
59103;BME280;43999;51.660;5.616;2022-10-22T04:03:20;100759.59;;;12.15;100.00
59103;BME280;43999;51.660;5.616;2022-10-22T04:05:48;100777.25;;;12.13;100.00
59103;BME280;43999;51.660;5.616;2022-10-22T04:08:15;100765.13;;;12.11;100.00
59103;BME280;43999;51.660;5.616;2022-10-22T04:10:50;100766.84;;;12.12;100.00
59103;BME280;43999;51.660;5.616;2022-10-22T04:13:17;100766.91;;;12.10;100.00
59103;BME280;43999;51.660;5.616;2022-10-22T04:15:45;100772.19;;;12.10;100.00
59103;BME280;43999;51.660;5.616;2022-10-22T04:18:24;100769.66;;;12.09;100.00
59103;BME280;43999;51.660;5.616;2022-10-22T04:20:51;100767.84;;;12.09;100.00
59103;BME280;43999;51.660;5.616;2022-10-22T04:23:18;100769.66;;;12.09;100.00
59103;BME280;43999;51.660;5.616;2022-10-22T04:25:45;100771.41;;;12.08;100.00
59103;BME280;43999;51.660;5.616;2022-10-22T04:28:13;100772.28;;;12.09;100.00
59103;BME280;43999;51.660;5.616;2022-10-22T04:30:40;100767.84;;;12.09;100.00
59103;BME280;43999;51.660;5.616;2022-10-22T04:33:07;100770.47;;;12.09;100.00
59103;BME280;43999;51.660;5.616;2022-10-22T04:35:38;100776.56;;;12.10;100.00
59103;BME280;43999;51.660;5.616;2022-10-22T04:38:05;100772.09;;;12.12;100.00
59103;BME280;43999;51.660;5.616;2022-10-22T04:40:33;100768.59;;;12.11;100.00
59103;BME280;43999;51.660;5.616;2022-10-22T04:43:00;100766.72;;;12.13;100.00
59103;BME280;43999;51.660;5.616;2022-10-22T04:45:27;100771.69;;;12.18;100.00
59103;BME280;43999;51.660;5.616;2022-10-22T04:47:56;100770.00;;;12.17;100.00
59103;BME280;43999;51.660;5.616;2022-10-22T04:50:24;100766.53;;;12.16;100.00
59103;BME280;43999;51.660;5.616;2022-10-22T04:52:51;100768.41;;;12.14;100.00
59103;BME280;43999;51.660;5.616;2022-10-22T04:55:19;100772.81;;;12.14;100.00
59103;BME280;43999;51.660;5.616;2022-10-22T04:57:46;100777.25;;;12.13;100.00
59103;BME280;43999;51.660;5.616;2022-10-22T05:00:13;100781.63;;;12.13;100.00
59103;BME280;43999;51.660;5.616;2022-10-22T05:02:42;100786.06;;;12.12;100.00
59103;BME280;43999;51.660;5.616;2022-10-22T05:05:10;100788.69;;;12.12;100.00
59103;BME280;43999;51.660;5.616;2022-10-22T05:07:37;100787.75;;;12.13;100.00
59103;BME280;43999;51.660;5.616;2022-10-22T05:10:06;100793.75;;;12.15;100.00
59103;BME280;43999;51.660;5.616;2022-10-22T05:12:34;100791.94;;;12.16;100.00
59103;BME280;43999;51.660;5.616;2022-10-22T05:15:01;100797.97;;;12.18;100.00
59103;BME280;43999;51.660;5.616;2022-10-22T05:17:28;100786.41;;;12.20;100.00
59103;BME280;43999;51.660;5.616;2022-10-22T05:19:56;100792.63;;;12.19;100.00
59103;BME280;43999;51.660;5.616;2022-10-22T05:22:23;100795.25;;;12.19;100.00
59103;BME280;43999;51.660;5.616;2022-10-22T05:24:50;100791.66;;;12.20;100.00
59103;BME280;43999;51.660;5.616;2022-10-22T05:27:17;100793.38;;;12.22;100.00
59103;BME280;43999;51.660;5.616;2022-10-22T05:29:49;100792.44;;;12.23;100.00
59103;BME280;43999;51.660;5.616;2022-10-22T05:32:17;100787.19;;;12.23;100.00
59103;BME280;43999;51.660;5.616;2022-10-22T05:34:44;100793.91;;;12.27;100.00
59103;BME280;43999;51.660;5.616;2022-10-22T05:37:11;100789.25;;;12.32;100.00
59103;BME280;43999;51.660;5.616;2022-10-22T05:39:38;100793.44;;;12.34;100.00
59103;BME280;43999;51.660;5.616;2022-10-22T05:42:08;100792.31;;;12.38;100.00
59103;BME280;43999;51.660;5.616;2022-10-22T05:44:35;100798.31;;;12.41;100.00
59103;BME280;43999;51.660;5.616;2022-10-22T05:47:02;100807.06;;;12.41;100.00
59103;BME280;43999;51.660;5.616;2022-10-22T05:49:29;100804.34;;;12.43;100.00
59103;BME280;43999;51.660;5.616;2022-10-22T05:51:57;100808.72;;;12.42;100.00
59103;BME280;43999;51.660;5.616;2022-10-22T05:54:24;100803.47;;;12.42;100.00
59103;BME280;43999;51.660;5.616;2022-10-22T05:56:51;100813.16;;;12.42;100.00
59103;BME280;43999;51.660;5.616;2022-10-22T05:59:18;100824.59;;;12.41;100.00
59103;BME280;43999;51.660;5.616;2022-10-22T06:01:45;100822.84;;;12.41;100.00
59103;BME280;43999;51.660;5.616;2022-10-22T06:04:13;100830.72;;;12.41;100.00
59103;BME280;43999;51.660;5.616;2022-10-22T06:06:49;100829.13;;;12.38;100.00
59103;BME280;43999;51.660;5.616;2022-10-22T06:09:34;100830.91;;;12.38;100.00
59103;BME280;43999;51.660;5.616;2022-10-22T06:12:03;100830.81;;;12.40;100.00
59103;BME280;43999;51.660;5.616;2022-10-22T06:14:34;100837.91;;;12.37;100.00
59103;BME280;43999;51.660;5.616;2022-10-22T06:17:02;100842.25;;;12.38;100.00
59103;BME280;43999;51.660;5.616;2022-10-22T06:19:29;100842.25;;;12.38;100.00
59103;BME280;43999;51.660;5.616;2022-10-22T06:21:59;100845.06;;;12.35;100.00
59103;BME280;43999;51.660;5.616;2022-10-22T06:24:27;100851.06;;;12.37;100.00
59103;BME280;43999;51.660;5.616;2022-10-22T06:26:54;100851.16;;;12.36;100.00
59103;BME280;43999;51.660;5.616;2022-10-22T06:29:22;100859.03;;;12.36;100.00
59103;BME280;43999;51.660;5.616;2022-10-22T06:31:49;100856.41;;;12.36;100.00
59103;BME280;43999;51.660;5.616;2022-10-22T06:34:19;100864.09;;;12.39;100.00
59103;BME280;43999;51.660;5.616;2022-10-22T06:36:46;100867.69;;;12.38;100.00
59103;BME280;43999;51.660;5.616;2022-10-22T06:39:16;100878.13;;;12.40;100.00
59103;BME280;43999;51.660;5.616;2022-10-22T06:41:43;100888.44;;;12.43;100.00
59103;BME280;43999;51.660;5.616;2022-10-22T06:44:16;100890.00;;;12.45;100.00
59103;BME280;43999;51.660;5.616;2022-10-22T06:46:48;100883.63;;;12.49;100.00
59103;BME280;43999;51.660;5.616;2022-10-22T06:49:19;100886.91;;;12.53;100.00
59103;BME280;43999;51.660;5.616;2022-10-22T06:51:52;100897.25;;;12.56;100.00
59103;BME280;43999;51.660;5.616;2022-10-22T06:54:21;100897.16;;;12.58;100.00
59103;BME280;43999;51.660;5.616;2022-10-22T06:56:48;100905.81;;;12.60;100.00
59103;BME280;43999;51.660;5.616;2022-10-22T06:59:16;100898.66;;;12.62;100.00
59103;BME280;43999;51.660;5.616;2022-10-22T07:01:46;100908.25;;;12.63;100.00
59103;BME280;43999;51.660;5.616;2022-10-22T07:04:13;100914.25;;;12.65;100.00
59103;BME280;43999;51.660;5.616;2022-10-22T07:06:41;100918.56;;;12.66;100.00
59103;BME280;43999;51.660;5.616;2022-10-22T07:09:08;100919.41;;;12.66;100.00
59103;BME280;43999;51.660;5.616;2022-10-22T07:11:44;100936.78;;;12.69;100.00
59103;BME280;43999;51.660;5.616;2022-10-22T07:14:14;100934.81;;;12.72;100.00
59103;BME280;43999;51.660;5.616;2022-10-22T07:16:41;100933.00;;;12.73;100.00
59103;BME280;43999;51.660;5.616;2022-10-22T07:19:09;100935.66;;;12.73;100.00
59103;BME280;43999;51.660;5.616;2022-10-22T07:21:36;100940.91;;;12.73;100.00
59103;BME280;43999;51.660;5.616;2022-10-22T07:24:04;100940.81;;;12.74;100.00
59103;BME280;43999;51.660;5.616;2022-10-22T07:26:32;100941.69;;;12.75;100.00
59103;BME280;43999;51.660;5.616;2022-10-22T07:29:00;100945.03;;;12.77;100.00
59103;BME280;43999;51.660;5.616;2022-10-22T07:31:27;100944.22;;;12.77;100.00
59103;BME280;43999;51.660;5.616;2022-10-22T07:33:55;100952.09;;;12.77;100.00
59103;BME280;43999;51.660;5.616;2022-10-22T07:36:22;100955.47;;;12.79;100.00
59103;BME280;43999;51.660;5.616;2022-10-22T07:38:57;100954.25;;;12.84;100.00
59103;BME280;43999;51.660;5.616;2022-10-22T07:41:27;100958.56;;;12.85;100.00
59103;BME280;43999;51.660;5.616;2022-10-22T07:43:56;100956.78;;;12.86;100.00
59103;BME280;43999;51.660;5.616;2022-10-22T07:46:25;100954.91;;;12.88;100.00
59103;BME280;43999;51.660;5.616;2022-10-22T07:48:53;100961.75;;;12.90;100.00
59103;BME280;43999;51.660;5.616;2022-10-22T07:51:20;100964.22;;;12.94;100.00
59103;BME280;43999;51.660;5.616;2022-10-22T07:53:51;100966.38;;;13.01;100.00
59103;BME280;43999;51.660;5.616;2022-10-22T07:56:19;100968.63;;;13.07;100.00
59103;BME280;43999;51.660;5.616;2022-10-22T07:58:46;100979.69;;;13.13;100.00
59103;BME280;43999;51.660;5.616;2022-10-22T08:01:13;100975.63;;;13.21;100.00
59103;BME280;43999;51.660;5.616;2022-10-22T08:03:41;100985.41;;;13.34;100.00
59103;BME280;43999;51.660;5.616;2022-10-22T08:06:11;100982.28;;;13.41;100.00
59103;BME280;43999;51.660;5.616;2022-10-22T08:08:41;100981.69;;;13.51;100.00
59103;BME280;43999;51.660;5.616;2022-10-22T08:11:09;100975.66;;;13.63;100.00
59103;BME280;43999;51.660;5.616;2022-10-22T08:13:37;100990.66;;;13.75;100.00
59103;BME280;43999;51.660;5.616;2022-10-22T08:16:11;100989.00;;;13.87;100.00
59103;BME280;43999;51.660;5.616;2022-10-22T08:18:38;100995.38;;;13.97;100.00
59103;BME280;43999;51.660;5.616;2022-10-22T08:21:06;101003.50;;;14.07;100.00
59103;BME280;43999;51.660;5.616;2022-10-22T08:23:33;101002.69;;;14.20;100.00
59103;BME280;43999;51.660;5.616;2022-10-22T08:26:01;101008.59;;;14.23;100.00
59103;BME280;43999;51.660;5.616;2022-10-22T08:28:29;100997.03;;;14.26;100.00
59103;BME280;43999;51.660;5.616;2022-10-22T08:30:58;101002.94;;;14.29;100.00
59103;BME280;43999;51.660;5.616;2022-10-22T08:33:25;101009.69;;;14.33;100.00
59103;BME280;43999;51.660;5.616;2022-10-22T08:35:53;101020.03;;;14.37;100.00
59103;BME280;43999;51.660;5.616;2022-10-22T08:38:20;101013.50;;;14.42;100.00
59103;BME280;43999;51.660;5.616;2022-10-22T08:40:56;101012.22;;;14.48;100.00
59103;BME280;43999;51.660;5.616;2022-10-22T08:44:01;101025.94;;;14.53;100.00
59103;BME280;43999;51.660;5.616;2022-10-22T08:49:49;101034.84;;;14.78;100.00
59103;BME280;43999;51.660;5.616;2022-10-22T08:52:21;101042.69;;;14.92;100.00
59103;BME280;43999;51.660;5.616;2022-10-22T08:54:53;101048.16;;;15.02;100.00
59103;BME280;43999;51.660;5.616;2022-10-22T09:00:57;101052.38;;;15.17;100.00
59103;BME280;43999;51.660;5.616;2022-10-22T09:06:57;101059.66;;;15.27;100.00
59103;BME280;43999;51.660;5.616;2022-10-22T09:09:33;101050.56;;;15.31;100.00
59103;BME280;43999;51.660;5.616;2022-10-22T09:12:09;101065.13;;;15.36;100.00
59103;BME280;43999;51.660;5.616;2022-10-22T09:14:46;101071.88;;;15.40;100.00
59103;BME280;43999;51.660;5.616;2022-10-22T09:20:48;101068.19;;;15.43;100.00
59103;BME280;43999;51.660;5.616;2022-10-22T09:23:57;101074.09;;;15.47;100.00
59103;BME280;43999;51.660;5.616;2022-10-22T09:26:26;101079.47;;;15.45;100.00
59103;BME280;43999;51.660;5.616;2022-10-22T09:28:53;101080.41;;;15.44;100.00
59103;BME280;43999;51.660;5.616;2022-10-22T09:31:26;101082.13;;;15.45;100.00
59103;BME280;43999;51.660;5.616;2022-10-22T09:33:58;101083.91;;;15.45;100.00
59103;BME280;43999;51.660;5.616;2022-10-22T09:36:32;101088.13;;;15.47;100.00
59103;BME280;43999;51.660;5.616;2022-10-22T09:39:00;101087.19;;;15.48;100.00
59103;BME280;43999;51.660;5.616;2022-10-22T09:41:29;101097.63;;;15.50;100.00
59103;BME280;43999;51.660;5.616;2022-10-22T09:43:57;101098.38;;;15.52;100.00
59103;BME280;43999;51.660;5.616;2022-10-22T09:46:28;101097.41;;;15.53;100.00
59103;BME280;43999;51.660;5.616;2022-10-22T09:49:22;101101.66;;;15.55;100.00
59103;BME280;43999;51.660;5.616;2022-10-22T09:51:58;101108.50;;;15.58;100.00
59103;BME280;43999;51.660;5.616;2022-10-22T09:57:15;101118.41;;;15.67;100.00
59103;BME280;43999;51.660;5.616;2022-10-22T09:59:50;101124.34;;;15.71;100.00
59103;BME280;43999;51.660;5.616;2022-10-22T10:02:22;101127.81;;;15.71;100.00
59103;BME280;43999;51.660;5.616;2022-10-22T10:05:23;101135.63;;;15.73;100.00
59103;BME280;43999;51.660;5.616;2022-10-22T10:07:53;101135.41;;;15.76;100.00
59103;BME280;43999;51.660;5.616;2022-10-22T10:10:51;101138.81;;;15.78;100.00
59103;BME280;43999;51.660;5.616;2022-10-22T10:14:10;101144.00;;;15.80;100.00
59103;BME280;43999;51.660;5.616;2022-10-22T10:16:59;101151.91;;;15.80;100.00
59103;BME280;43999;51.660;5.616;2022-10-22T10:26:33;101159.00;;;15.79;100.00
59103;BME280;43999;51.660;5.616;2022-10-22T10:29:40;101166.94;;;15.79;100.00
59103;BME280;43999;51.660;5.616;2022-10-22T10:35:45;101159.06;;;15.90;100.00
59103;BME280;43999;51.660;5.616;2022-10-22T10:39:03;101170.38;;;16.05;100.00
59103;BME280;43999;51.660;5.616;2022-10-22T10:45:02;101173.34;;;16.25;100.00
59103;BME280;43999;51.660;5.616;2022-10-22T10:54:06;101168.75;;;16.64;100.00
59103;BME280;43999;51.660;5.616;2022-10-22T11:05:54;101182.28;;;17.08;100.00
59103;BME280;43999;51.660;5.616;2022-10-22T11:08:35;101178.44;;;17.12;100.00
59103;BME280;43999;51.660;5.616;2022-10-22T11:11:17;101173.50;;;17.18;100.00
59103;BME280;43999;51.660;5.616;2022-10-22T11:13:59;101171.59;;;17.20;100.00
59103;BME280;43999;51.660;5.616;2022-10-22T11:16:41;101176.41;;;17.27;100.00
59103;BME280;43999;51.660;5.616;2022-10-22T11:19:26;101175.56;;;17.26;100.00
59103;BME280;43999;51.660;5.616;2022-10-22T11:22:35;101181.00;;;17.25;100.00
59103;BME280;43999;51.660;5.616;2022-10-22T11:25:46;101179.19;;;17.25;100.00
59103;BME280;43999;51.660;5.616;2022-10-22T11:28:36;101173.88;;;17.25;100.00
59103;BME280;43999;51.660;5.616;2022-10-22T11:31:14;101177.25;;;17.27;100.00
59103;BME280;43999;51.660;5.616;2022-10-22T11:37:13;101171.75;;;17.42;100.00
59103;BME280;43999;51.660;5.616;2022-10-22T11:39:53;101170.28;;;17.49;100.00
59103;BME280;43999;51.660;5.616;2022-10-22T11:42:40;101173.78;;;17.49;100.00
59103;BME280;43999;51.660;5.616;2022-10-22T11:53:36;101175.81;;;17.34;100.00
59103;BME280;43999;51.660;5.616;2022-10-22T11:58:41;101175.34;;;17.29;100.00
59103;BME280;43999;51.660;5.616;2022-10-22T12:06:25;101179.19;;;17.36;100.00
59103;BME280;43999;51.660;5.616;2022-10-22T12:09:01;101172.81;;;17.39;100.00
59103;BME280;43999;51.660;5.616;2022-10-22T12:11:46;101177.03;;;17.42;100.00
59103;BME280;43999;51.660;5.616;2022-10-22T12:14:26;101167.41;;;17.41;100.00
59103;BME280;43999;51.660;5.616;2022-10-22T12:17:11;101175.22;;;17.42;100.00
59103;BME280;43999;51.660;5.616;2022-10-22T12:19:53;101168.75;;;17.46;100.00
59103;BME280;43999;51.660;5.616;2022-10-22T12:22:33;101172.81;;;17.50;100.00
59103;BME280;43999;51.660;5.616;2022-10-22T12:25:23;101172.84;;;17.62;100.00
59103;BME280;43999;51.660;5.616;2022-10-22T12:28:01;101168.84;;;17.67;100.00
59103;BME280;43999;51.660;5.616;2022-10-22T12:30:32;101185.38;;;17.71;100.00
59103;BME280;43999;51.660;5.616;2022-10-22T12:33:07;101186.56;;;17.78;100.00
59103;BME280;43999;51.660;5.616;2022-10-22T12:35:46;101184.16;;;17.86;100.00
59103;BME280;43999;51.660;5.616;2022-10-22T12:38:21;101187.31;;;17.91;100.00
59103;BME280;43999;51.660;5.616;2022-10-22T12:40:53;101182.84;;;17.92;100.00
59103;BME280;43999;51.660;5.616;2022-10-22T12:43:30;101189.97;;;17.91;100.00
59103;BME280;43999;51.660;5.616;2022-10-22T12:45:58;101185.81;;;17.87;100.00
59103;BME280;43999;51.660;5.616;2022-10-22T12:48:37;101177.53;;;17.81;100.00
59103;BME280;43999;51.660;5.616;2022-10-22T12:51:16;101181.00;;;17.81;100.00
59103;BME280;43999;51.660;5.616;2022-10-22T12:53:52;101189.81;;;17.82;100.00
59103;BME280;43999;51.660;5.616;2022-10-22T12:56:28;101180.19;;;17.92;100.00
59103;BME280;43999;51.660;5.616;2022-10-22T12:59:29;101181.03;;;18.04;100.00
59103;BME280;43999;51.660;5.616;2022-10-22T13:02:20;101186.91;;;18.07;100.00
59103;BME280;43999;51.660;5.616;2022-10-22T13:08:10;101182.94;;;18.13;100.00
59103;BME280;43999;51.660;5.616;2022-10-22T13:10:51;101179.78;;;18.19;100.00
59103;BME280;43999;51.660;5.616;2022-10-22T13:13:41;101174.81;;;18.26;100.00
59103;BME280;43999;51.660;5.616;2022-10-22T13:16:21;101173.88;;;18.27;100.00
59103;BME280;43999;51.660;5.616;2022-10-22T13:18:52;101175.06;;;18.23;100.00
59103;BME280;43999;51.660;5.616;2022-10-22T13:24:00;101174.38;;;18.21;100.00
59103;BME280;43999;51.660;5.616;2022-10-22T13:26:52;101170.63;;;18.23;100.00
59103;BME280;43999;51.660;5.616;2022-10-22T13:29:22;101177.59;;;18.36;100.00
59103;BME280;43999;51.660;5.616;2022-10-22T13:31:52;101175.34;;;18.52;98.72
59103;BME280;43999;51.660;5.616;2022-10-22T13:34:23;101172.38;;;18.67;99.70
59103;BME280;43999;51.660;5.616;2022-10-22T13:36:51;101173.00;;;18.70;96.48
59103;BME280;43999;51.660;5.616;2022-10-22T13:39:23;101173.25;;;18.67;97.20
59103;BME280;43999;51.660;5.616;2022-10-22T13:41:51;101166.50;;;18.63;95.45
59103;BME280;43999;51.660;5.616;2022-10-22T13:44:18;101175.94;;;18.56;95.18
59103;BME280;43999;51.660;5.616;2022-10-22T13:46:49;101178.97;;;18.51;97.54
59103;BME280;43999;51.660;5.616;2022-10-22T13:49:19;101174.53;;;18.52;97.71
59103;BME280;43999;51.660;5.616;2022-10-22T13:51:49;101175.72;;;18.48;97.13
59103;BME280;43999;51.660;5.616;2022-10-22T13:54:21;101180.00;;;18.39;97.71
59103;BME280;43999;51.660;5.616;2022-10-22T13:56:50;101169.75;;;18.34;98.62
59103;BME280;43999;51.660;5.616;2022-10-22T13:59:18;101173.38;;;18.33;100.00
59103;BME280;43999;51.660;5.616;2022-10-22T14:01:50;101174.94;;;18.36;100.00
59103;BME280;43999;51.660;5.616;2022-10-22T14:04:18;101175.78;;;18.36;99.60
59103;BME280;43999;51.660;5.616;2022-10-22T14:06:45;101180.00;;;18.39;99.11
59103;BME280;43999;51.660;5.616;2022-10-22T14:09:14;101177.22;;;18.40;99.17
59103;BME280;43999;51.660;5.616;2022-10-22T14:11:42;101180.94;;;18.38;99.54
59103;BME280;43999;51.660;5.616;2022-10-22T14:14:09;101175.78;;;18.36;99.41
59103;BME280;43999;51.660;5.616;2022-10-22T14:16:40;101179.75;;;18.42;99.78
59103;BME280;43999;51.660;5.616;2022-10-22T14:19:15;101175.84;;;18.46;98.46
59103;BME280;43999;51.660;5.616;2022-10-22T14:21:44;101176.34;;;18.40;98.47
59103;BME280;43999;51.660;5.616;2022-10-22T14:24:11;101180.75;;;18.30;96.79
59103;BME280;43999;51.660;5.616;2022-10-22T14:26:39;101179.09;;;18.17;97.75
59103;BME280;43999;51.660;5.616;2022-10-22T14:29:07;101179.81;;;18.08;98.52
59103;BME280;43999;51.660;5.616;2022-10-22T14:31:38;101189.94;;;18.03;98.67
59103;BME280;43999;51.660;5.616;2022-10-22T14:34:10;101181.50;;;17.98;99.46
59103;BME280;43999;51.660;5.616;2022-10-22T14:36:39;101189.34;;;17.99;100.00
59103;BME280;43999;51.660;5.616;2022-10-22T14:39:10;101188.41;;;18.00;100.00
59103;BME280;43999;51.660;5.616;2022-10-22T14:41:38;101195.00;;;18.06;100.00
59103;BME280;43999;51.660;5.616;2022-10-22T14:44:09;101189.44;;;18.09;100.00